createdAt,value
2017-08-19T00:02:15.570Z,27.37
2017-08-19T00:04:44.147Z,26.63
2017-08-19T00:07:12.871Z,28.33
2017-08-19T00:09:41.267Z,27.70
2017-08-19T00:12:09.821Z,27.63
2017-08-19T00:14:37.946Z,28.53
2017-08-19T00:17:06.534Z,27.77
2017-08-19T00:19:35.147Z,26.73
2017-08-19T00:22:04.007Z,30.17
2017-08-19T00:24:32.472Z,26.40
2017-08-19T00:27:01.079Z,27.13
2017-08-19T00:29:29.870Z,28.70
2017-08-19T00:31:58.514Z,29.57
2017-08-19T00:34:26.538Z,28.53
2017-08-19T00:36:55.170Z,29.80
2017-08-19T00:39:23.891Z,29.63
2017-08-19T00:41:53.064Z,29.10
2017-08-19T00:44:21.575Z,28.00
2017-08-19T00:46:50.098Z,28.90
2017-08-19T00:49:18.746Z,30.30
2017-08-19T00:51:47.605Z,28.70
2017-08-19T00:54:16.050Z,27.97
2017-08-19T00:56:45.199Z,26.93
2017-08-19T00:59:13.774Z,28.00
2017-08-19T01:01:42.490Z,28.10
2017-08-19T01:04:11.243Z,29.30
2017-08-19T01:06:39.765Z,28.20
2017-08-19T01:09:08.354Z,29.40
2017-08-19T01:11:37.038Z,26.83
2017-08-19T01:14:05.931Z,28.37
2017-08-19T01:16:34.414Z,26.00
2017-08-19T01:19:02.894Z,29.17
2017-08-19T01:21:31.715Z,28.37
2017-08-19T01:24:00.360Z,29.87
2017-08-19T01:26:52.570Z,29.13
2017-08-19T01:29:21.031Z,30.73
2017-08-19T01:31:49.603Z,28.47
2017-08-19T01:34:18.434Z,28.90
2017-08-19T01:36:46.831Z,28.63
2017-08-19T01:39:15.439Z,27.77
2017-08-19T01:41:44.146Z,29.33
2017-08-19T01:44:12.638Z,29.47
2017-08-19T01:46:41.191Z,30.20
2017-08-19T01:49:10.007Z,26.97
2017-08-19T01:51:38.759Z,29.10
2017-08-19T01:54:07.285Z,26.80
2017-08-19T01:56:35.939Z,28.13
2017-08-19T01:59:04.582Z,28.50
2017-08-19T02:01:32.987Z,31.07
2017-08-19T02:04:01.722Z,28.87
2017-08-19T02:06:30.301Z,26.80
2017-08-19T02:08:59.025Z,28.77
2017-08-19T02:11:27.510Z,28.93
2017-08-19T02:13:56.031Z,28.90
2017-08-19T02:16:24.747Z,28.27
2017-08-19T02:18:53.675Z,28.37
2017-08-19T02:21:21.698Z,29.87
2017-08-19T02:36:52.849Z,30.07
2017-08-19T02:39:20.866Z,27.80
2017-08-19T02:41:48.879Z,29.67
2017-08-19T02:44:17.719Z,29.90
2017-08-19T02:46:46.125Z,28.80
2017-08-19T02:49:14.721Z,30.43
2017-08-19T02:51:43.470Z,28.73
2017-08-19T02:54:11.871Z,30.37
2017-08-19T02:56:40.479Z,30.33
2017-08-19T02:59:08.770Z,29.53
2017-08-19T03:01:37.270Z,29.47
2017-08-19T03:04:05.298Z,28.67
2017-08-19T03:06:33.859Z,30.80
2017-08-19T03:09:02.379Z,30.90
2017-08-19T03:11:31.022Z,28.50
2017-08-19T03:13:59.956Z,29.40
2017-08-19T03:16:28.391Z,28.40
2017-08-19T03:18:57.942Z,28.50
2017-08-19T03:21:26.559Z,28.80
2017-08-19T03:23:55.018Z,28.50
2017-08-19T03:26:23.663Z,27.10
2017-08-19T03:28:51.783Z,28.87
2017-08-19T03:31:20.466Z,29.47
2017-08-19T03:33:48.498Z,27.87
2017-08-19T03:36:22.170Z,27.37
2017-08-19T03:38:50.758Z,28.80
2017-08-19T03:41:19.866Z,29.17
2017-08-19T03:43:49.927Z,29.27
2017-08-19T03:46:18.458Z,32.03
2017-08-19T03:48:46.566Z,29.20
2017-08-19T03:51:15.009Z,28.70
2017-08-19T03:53:43.558Z,30.63
2017-08-19T03:56:12.414Z,29.13
2017-08-19T03:58:40.438Z,30.40
2017-08-19T04:01:08.972Z,29.27
2017-08-19T04:03:37.863Z,29.57
2017-08-19T04:06:06.310Z,29.90
2017-08-19T04:08:34.354Z,31.40
2017-08-19T04:11:03.002Z,30.00
2017-08-19T04:13:31.734Z,29.40
2017-08-19T04:16:00.342Z,30.70
2017-08-19T04:18:28.490Z,32.13
2017-08-19T04:20:57.178Z,32.00
2017-08-19T04:23:25.794Z,30.30
2017-08-19T04:25:54.651Z,32.23
2017-08-19T04:28:23.953Z,31.03
2017-08-19T04:30:52.610Z,30.97
2017-08-19T04:33:21.142Z,29.87
2017-08-19T04:35:49.710Z,29.37
2017-08-19T04:38:18.606Z,32.00
2017-08-19T04:40:47.394Z,33.60
2017-08-19T04:43:16.072Z,29.27
2017-08-19T04:45:44.446Z,29.77
2017-08-19T04:48:13.278Z,27.60
2017-08-19T04:50:41.895Z,27.23
2017-08-19T04:53:10.299Z,29.17
2017-08-19T04:55:39.244Z,29.43
2017-08-19T04:58:07.818Z,29.90
2017-08-19T05:00:36.571Z,28.77
2017-08-19T05:03:05.149Z,27.70
2017-08-19T05:05:33.758Z,27.90
2017-08-19T05:08:02.325Z,27.60
2017-08-19T05:10:30.986Z,28.53
2017-08-19T05:12:59.026Z,28.63
2017-08-19T05:15:28.399Z,29.08
2017-08-19T05:17:56.527Z,27.33
2017-08-19T05:20:24.562Z,27.77
2017-08-19T05:22:53.064Z,28.98
2017-08-19T05:25:21.926Z,27.77
2017-08-19T05:27:50.606Z,30.58
2017-08-19T05:30:19.385Z,27.83
2017-08-19T05:32:47.962Z,29.17
2017-08-19T05:35:16.572Z,27.30
2017-08-19T05:37:45.250Z,30.10
2017-08-19T05:40:14.354Z,29.70
2017-08-19T05:42:43.132Z,30.37
2017-08-19T05:45:11.613Z,29.73
2017-08-19T05:47:40.309Z,28.92
2017-08-19T05:50:08.351Z,28.38
2017-08-19T05:52:36.969Z,28.23
2017-08-19T05:55:05.783Z,28.80
2017-08-19T05:57:34.435Z,26.42
2017-08-19T06:00:02.859Z,25.80
2017-08-19T06:02:31.614Z,24.48
2017-08-19T06:05:00.262Z,27.67
2017-08-19T06:07:28.667Z,26.35
2017-08-19T06:09:56.780Z,27.67
2017-08-19T06:12:25.223Z,26.70
2017-08-19T06:14:53.263Z,29.25
2017-08-19T06:17:21.894Z,28.77
2017-08-19T06:19:50.410Z,27.40
2017-08-19T06:22:19.058Z,27.00
2017-08-19T06:24:47.915Z,28.33
2017-08-19T06:27:16.323Z,28.93
2017-08-19T06:29:44.930Z,29.12
2017-08-19T06:32:13.707Z,28.10
2017-08-19T06:34:42.386Z,26.87
2017-08-19T06:37:10.915Z,26.75
2017-08-19T06:39:40.822Z,28.08
2017-08-19T06:42:08.846Z,26.80
2017-08-19T06:44:37.459Z,27.48
2017-08-19T06:47:06.386Z,25.05
2017-08-19T06:49:35.655Z,25.83
2017-08-19T06:52:04.238Z,26.75
2017-08-19T06:54:33.082Z,24.95
2017-08-19T06:57:01.799Z,25.98
2017-08-19T06:59:31.314Z,25.25
2017-08-19T07:02:00.279Z,24.98
2017-08-19T07:04:28.679Z,26.87
2017-08-19T07:06:57.282Z,25.77
2017-08-19T07:09:26.095Z,25.02
2017-08-19T07:11:54.818Z,27.00
2017-08-19T07:14:23.532Z,27.10
2017-08-19T07:16:52.193Z,26.80
2017-08-19T07:19:20.719Z,28.87
2017-08-19T07:21:49.398Z,27.20
2017-08-19T07:24:18.290Z,28.00
2017-08-19T07:26:47.071Z,29.63
2017-08-19T07:29:15.594Z,26.43
2017-08-19T07:31:44.358Z,28.13
2017-08-19T07:34:12.966Z,26.97
2017-08-19T07:36:41.614Z,25.80
2017-08-19T07:39:09.762Z,28.70
2017-08-19T07:41:38.722Z,26.93
2017-08-19T07:44:07.442Z,23.53
2017-08-19T07:46:35.927Z,26.40
2017-08-19T07:49:04.380Z,26.77
2017-08-19T07:51:32.930Z,25.93
2017-08-19T07:54:01.139Z,26.77
2017-08-19T07:56:29.184Z,26.52
2017-08-19T07:58:57.665Z,25.45
2017-08-19T08:01:26.464Z,24.37
2017-08-19T08:03:55.199Z,26.98
2017-08-19T08:06:23.254Z,25.73
2017-08-19T08:08:51.368Z,26.12
2017-08-19T08:11:19.431Z,24.83
2017-08-19T08:13:47.870Z,25.73
2017-08-19T08:16:15.986Z,25.57
2017-08-19T08:18:44.019Z,27.57
2017-08-19T08:21:12.040Z,29.40
2017-08-19T08:23:40.786Z,29.37
2017-08-19T08:26:09.874Z,27.77
2017-08-19T08:28:38.353Z,28.57
2017-08-19T08:31:07.325Z,29.60
2017-08-19T08:33:35.344Z,31.10
2017-08-19T08:36:04.570Z,29.57
2017-08-19T08:38:33.282Z,29.23
2017-08-19T08:41:01.890Z,29.90
2017-08-19T08:43:30.010Z,31.37
2017-08-19T08:45:58.654Z,32.60
2017-08-19T08:48:27.271Z,31.67
2017-08-19T08:50:55.702Z,33.70
2017-08-19T08:53:24.482Z,30.70
2017-08-19T08:55:53.198Z,29.50
2017-08-19T08:58:21.843Z,31.70
2017-08-19T09:00:50.414Z,31.60
2017-08-19T09:03:19.059Z,30.37
2017-08-19T09:05:47.570Z,32.13
2017-08-19T09:08:16.098Z,31.20
2017-08-19T09:10:44.678Z,31.37
2017-08-19T09:13:13.118Z,32.07
2017-08-19T09:15:42.040Z,30.40
2017-08-19T09:18:10.071Z,32.00
2017-08-19T09:20:38.102Z,31.80
2017-08-19T09:23:06.826Z,33.17
2017-08-19T09:25:35.965Z,30.30
2017-08-19T09:28:04.571Z,32.13
2017-08-19T09:30:33.698Z,32.07
2017-08-19T09:33:02.372Z,33.30
2017-08-19T09:35:30.435Z,32.07
2017-08-19T09:37:59.580Z,33.40
2017-08-19T09:40:28.271Z,31.60
2017-08-19T09:42:57.514Z,30.07
2017-08-19T09:45:26.330Z,30.60
2017-08-19T09:47:55.251Z,31.37
2017-08-19T09:50:23.291Z,32.43
2017-08-19T09:52:52.258Z,31.70
2017-08-19T09:55:20.274Z,32.53
2017-08-19T09:57:49.695Z,31.57
2017-08-19T10:00:17.915Z,31.83
2017-08-19T10:02:46.522Z,34.07
2017-08-19T10:05:14.575Z,32.97
2017-08-19T10:07:43.461Z,33.47
2017-08-19T10:23:36.575Z,33.20
2017-08-19T10:26:05.103Z,35.50
2017-08-19T10:28:33.130Z,34.40
2017-08-19T10:31:01.858Z,34.10
2017-08-19T10:33:30.492Z,34.87
2017-08-19T10:35:59.755Z,35.10
2017-08-19T10:38:28.562Z,36.40
2017-08-19T10:40:57.315Z,34.90
2017-08-19T10:43:26.039Z,34.30
2017-08-19T10:45:54.730Z,37.50
2017-08-19T10:48:23.390Z,35.10
2017-08-19T10:50:52.135Z,35.60
2017-08-19T10:53:20.663Z,35.00
2017-08-19T10:55:49.175Z,33.50
2017-08-19T10:58:18.342Z,34.00
2017-08-19T11:00:47.054Z,34.60
2017-08-19T11:03:16.251Z,33.20
2017-08-19T11:05:44.918Z,34.10
2017-08-19T11:08:13.692Z,34.40
2017-08-19T11:10:42.114Z,34.83
2017-08-19T11:13:10.167Z,33.43
2017-08-19T11:15:38.738Z,34.10
2017-08-19T11:18:07.354Z,33.10
2017-08-19T11:20:36.000Z,33.97
2017-08-19T11:23:04.665Z,34.10
2017-08-19T11:25:33.186Z,34.70
2017-08-19T11:28:01.930Z,37.83
2017-08-19T11:30:30.622Z,36.30
2017-08-19T11:32:59.038Z,36.57
2017-08-19T11:35:27.058Z,37.93
2017-08-19T11:37:56.618Z,37.63
2017-08-19T11:40:25.162Z,38.17
2017-08-19T11:42:53.275Z,38.27
2017-08-19T11:45:21.627Z,36.57
2017-08-19T11:47:50.170Z,38.83
2017-08-19T11:50:18.749Z,39.90
2017-08-19T11:52:47.602Z,38.37
2017-08-19T11:55:15.614Z,39.17
2017-08-19T11:57:44.270Z,38.60
2017-08-19T12:00:13.162Z,38.93
2017-08-19T12:02:41.839Z,37.33
2017-08-19T12:05:09.878Z,38.67
2017-08-19T12:07:39.382Z,39.30
2017-08-19T12:10:08.613Z,43.47
2017-08-19T12:12:37.218Z,41.43
2017-08-19T12:15:05.931Z,42.63
2017-08-19T12:17:34.651Z,40.83
2017-08-19T12:20:03.050Z,43.23
2017-08-19T12:22:31.790Z,42.37
2017-08-19T12:25:00.371Z,40.03
2017-08-19T12:27:29.122Z,39.90
2017-08-19T12:29:57.698Z,42.27
2017-08-19T12:32:26.330Z,43.60
2017-08-19T12:34:55.050Z,42.00
2017-08-19T12:37:23.579Z,42.27
2017-08-19T12:39:52.158Z,42.60
2017-08-19T12:42:20.775Z,42.80
2017-08-19T12:44:48.946Z,44.13
2017-08-19T12:47:17.262Z,41.13
2017-08-19T12:49:45.270Z,41.67
2017-08-19T12:52:14.062Z,41.43
2017-08-19T12:54:42.692Z,41.43
2017-08-19T12:57:12.102Z,41.87
2017-08-19T12:59:41.518Z,39.03
2017-08-19T13:02:10.038Z,40.90
2017-08-19T13:04:38.731Z,40.93
2017-08-19T13:07:07.479Z,41.17
2017-08-19T13:09:35.870Z,39.80
2017-08-19T13:12:04.478Z,40.10
2017-08-19T13:14:33.375Z,42.50
2017-08-19T13:17:02.150Z,40.03
2017-08-19T13:19:30.690Z,42.40
2017-08-19T13:22:00.313Z,40.90
2017-08-19T13:24:29.657Z,41.60
2017-08-19T13:26:58.346Z,42.60
2017-08-19T13:29:27.438Z,43.10
2017-08-19T13:31:56.019Z,42.80
2017-08-19T13:34:24.488Z,43.60
2017-08-19T13:36:53.121Z,42.47
2017-08-19T13:39:21.847Z,42.20
2017-08-19T13:41:50.467Z,42.20
2017-08-19T13:44:20.108Z,43.87
2017-08-19T13:46:48.133Z,43.47
2017-08-19T13:49:17.042Z,42.80
2017-08-19T13:51:45.790Z,42.43
2017-08-19T13:54:14.138Z,51.13
2017-08-19T13:56:42.694Z,48.60
2017-08-19T13:59:11.581Z,50.00
2017-08-19T14:01:39.601Z,49.23
2017-08-19T14:04:08.786Z,49.80
2017-08-19T14:06:37.448Z,50.30
2017-08-19T14:09:06.126Z,48.43
2017-08-19T14:11:34.882Z,47.00
2017-08-19T14:14:03.815Z,47.53
2017-08-19T14:16:32.384Z,49.03
2017-08-19T14:19:00.983Z,52.77
2017-08-19T14:21:29.694Z,50.33
2017-08-19T14:23:58.344Z,51.83
2017-08-19T14:26:26.871Z,50.40
2017-08-19T14:28:55.058Z,48.77
2017-08-19T14:31:24.349Z,49.87
2017-08-19T14:33:52.395Z,49.73
2017-08-19T14:36:21.078Z,50.20
2017-08-19T14:38:49.659Z,51.73
2017-08-19T14:41:18.444Z,49.20
2017-08-19T14:43:47.283Z,52.70
2017-08-19T14:46:16.642Z,51.97
2017-08-19T14:48:45.321Z,51.80
2017-08-19T14:51:14.360Z,55.60
2017-08-19T14:53:43.694Z,52.70
2017-08-19T14:56:11.702Z,49.20
2017-08-19T14:58:39.997Z,53.53
2017-08-19T15:01:08.496Z,54.47
2017-08-19T15:03:36.974Z,50.47
2017-08-19T15:06:05.260Z,52.20
2017-08-19T15:08:34.408Z,54.57
2017-08-19T15:11:02.594Z,55.93
2017-08-19T15:13:31.518Z,54.67
2017-08-19T15:16:00.235Z,51.27
2017-08-19T15:18:28.259Z,53.57
2017-08-19T15:20:57.166Z,55.73
2017-08-19T15:23:26.999Z,56.00
2017-08-19T15:25:55.038Z,53.77
2017-08-19T15:28:23.589Z,56.70
2017-08-19T15:30:52.194Z,57.07
2017-08-19T15:33:20.807Z,59.23
2017-08-19T15:35:49.118Z,55.60
2017-08-19T15:38:17.179Z,55.30
2017-08-19T15:40:45.204Z,55.83
2017-08-19T15:43:13.998Z,53.83
2017-08-19T15:45:42.642Z,55.13
2017-08-19T15:48:24.518Z,55.60
2017-08-19T17:58:06.802Z,63.00
2017-08-19T18:00:35.719Z,65.80
2017-08-19T18:03:04.438Z,64.57
2017-08-19T18:05:32.961Z,66.53
2017-08-19T18:08:01.646Z,62.53
2017-08-19T18:10:30.262Z,63.10
2017-08-19T18:12:59.330Z,64.50
2017-08-19T18:15:28.007Z,66.53
2017-08-19T18:17:56.431Z,63.03
2017-08-19T18:20:25.705Z,64.00
2017-08-19T18:22:54.295Z,66.33
2017-08-19T18:25:22.907Z,67.90
2017-08-19T18:27:51.830Z,65.10
2017-08-19T18:30:20.233Z,66.63
2017-08-19T18:32:48.734Z,62.93
2017-08-19T18:35:17.546Z,62.33
2017-08-19T18:37:46.267Z,63.40
2017-08-19T18:40:14.702Z,67.70
2017-08-19T18:42:43.479Z,64.20
2017-08-19T18:45:12.090Z,67.00
2017-08-19T18:47:40.815Z,69.60
2017-08-19T18:50:09.013Z,63.47
2017-08-19T18:52:37.042Z,67.40
2017-08-19T18:55:06.462Z,64.03
2017-08-19T18:57:34.973Z,67.77
2017-08-19T19:00:03.611Z,66.23
2017-08-19T19:02:32.752Z,66.53
2017-08-19T19:05:01.132Z,65.40
2017-08-19T19:07:29.903Z,66.07
2017-08-19T19:09:58.298Z,66.13
2017-08-19T19:12:27.105Z,64.23
2017-08-19T19:14:55.723Z,70.87
2017-08-19T19:17:24.442Z,69.70
2017-08-19T19:19:53.130Z,72.40
2017-08-19T19:22:21.154Z,69.00
2017-08-19T19:24:49.191Z,69.37
2017-08-19T19:27:18.107Z,70.80
2017-08-19T19:29:46.791Z,70.10
2017-08-19T19:32:15.571Z,71.53
2017-08-19T19:34:44.230Z,73.50
2017-08-19T19:37:12.763Z,76.47
2017-08-19T19:39:41.439Z,73.73
2017-08-19T19:42:10.291Z,75.60
2017-08-19T19:44:38.696Z,72.30
2017-08-19T19:47:07.124Z,73.07
2017-08-19T20:02:26.418Z,76.33
2017-08-19T20:04:54.939Z,73.77
2017-08-19T20:07:23.622Z,75.20
2017-08-19T20:09:52.475Z,75.60
2017-08-19T20:12:20.879Z,77.87
2017-08-19T20:14:49.486Z,72.57
2017-08-19T20:17:18.300Z,77.80
2017-08-19T20:19:46.923Z,75.00
2017-08-19T20:22:15.319Z,75.77
2017-08-19T20:24:44.034Z,74.67
2017-08-19T20:27:12.638Z,76.33
2017-08-19T20:29:41.070Z,77.57
2017-08-19T20:32:09.782Z,80.97
2017-08-19T20:34:37.807Z,76.50
2017-08-19T20:37:07.277Z,73.73
2017-08-19T20:39:36.110Z,72.17
2017-08-19T20:42:04.507Z,71.03
2017-08-19T20:44:33.118Z,71.70
2017-08-19T20:47:01.833Z,73.13
2017-08-19T20:49:30.550Z,72.80
2017-08-19T20:51:58.950Z,75.13
2017-08-19T20:54:27.102Z,75.80
2017-08-19T20:56:55.619Z,69.60
2017-08-19T20:59:24.215Z,72.03
2017-08-19T21:01:53.035Z,69.50
2017-08-19T21:04:21.478Z,71.47
2017-08-19T21:06:50.074Z,72.23
2017-08-19T21:09:18.786Z,72.13
2017-08-19T21:11:47.507Z,74.73
2017-08-19T21:14:16.032Z,74.50
2017-08-19T21:16:45.026Z,75.67
2017-08-19T21:19:13.610Z,71.40
2017-08-19T21:21:42.359Z,66.97
2017-08-19T21:24:10.882Z,72.47
2017-08-19T21:26:39.467Z,74.30
2017-08-19T21:29:08.082Z,76.20
2017-08-19T21:31:37.010Z,74.80
2017-08-19T21:34:05.628Z,74.30
2017-08-19T21:36:35.139Z,79.00
2017-08-19T21:39:03.885Z,74.50
2017-08-19T21:41:31.907Z,79.50
2017-08-19T21:44:00.583Z,72.80
2017-08-19T21:46:28.702Z,74.70
2017-08-19T21:48:57.840Z,76.83
2017-08-19T21:51:26.448Z,80.10
2017-08-19T21:53:55.342Z,74.20
2017-08-19T21:56:24.018Z,75.97
2017-08-19T21:58:52.806Z,77.07
2017-08-19T22:01:22.559Z,75.10
2017-08-19T22:03:51.170Z,74.77
2017-08-19T22:06:19.572Z,76.47
2017-08-19T22:08:47.690Z,76.00
2017-08-19T22:11:16.122Z,73.17
2017-08-19T22:13:44.642Z,75.80
2017-08-19T22:16:13.518Z,72.87
2017-08-19T22:18:41.559Z,76.60
2017-08-19T22:21:10.126Z,75.07
2017-08-19T22:23:39.615Z,78.80
2017-08-19T22:26:08.195Z,78.10
2017-08-19T22:28:37.063Z,77.40
2017-08-19T22:31:05.610Z,81.63
2017-08-19T22:33:34.126Z,77.73
2017-08-19T22:36:02.738Z,78.87
2017-08-19T22:38:31.561Z,80.90
2017-08-19T22:41:00.014Z,77.57
2017-08-19T22:43:28.594Z,77.03
2017-08-19T22:45:57.358Z,80.17
2017-08-19T22:48:25.410Z,81.70
2017-08-19T22:50:54.042Z,77.27
2017-08-19T22:53:23.010Z,76.90
2017-08-19T22:55:51.034Z,76.47
2017-08-19T22:58:20.265Z,70.53
2017-08-19T23:00:49.075Z,72.63
2017-08-19T23:03:17.966Z,69.60
2017-08-19T23:05:46.579Z,71.43
2017-08-19T23:08:15.182Z,70.43
2017-08-19T23:10:44.598Z,67.60
2017-08-19T23:13:13.054Z,67.00
2017-08-19T23:15:41.715Z,63.20
2017-08-19T23:18:10.395Z,60.80
2017-08-19T23:20:39.173Z,60.20
2017-08-19T23:23:07.835Z,61.03
2017-08-19T23:25:36.370Z,61.60
2017-08-19T23:28:05.038Z,61.37
2017-08-19T23:30:33.995Z,63.60
2017-08-19T23:33:02.390Z,62.13
2017-08-19T23:35:31.008Z,65.97
2017-08-19T23:37:59.819Z,62.90
2017-08-19T23:40:28.474Z,64.70
2017-08-19T23:42:57.256Z,62.90
2017-08-19T23:45:25.358Z,61.70
2017-08-19T23:47:53.374Z,65.37
2017-08-19T23:50:21.900Z,65.30
2017-08-19T23:52:50.690Z,64.30
2017-08-19T23:55:19.434Z,66.53
2017-08-19T23:57:47.831Z,64.70
